Time;durP1;ratioP1;P1;durP2;ratioP2;P2;SDS_P1;SDS_P2;PMS_P1;PMS_P2;Temp;Humidity;BMP_temperature;BMP_pressure;BME280_temperature;BME280_humidity;BME280_pressure;Samples;Min_cycle;Max_cycle;Signal;HPM_P1;HPM_P2
2023/03/21 00:00:02;;;;;;;4.60;4.03;;;;;;;;;;1030252;28;20337;-60
2023/03/21 00:00:33;;;;;;;4.38;3.97;;;;;;;;;;1030114;28;20264;-60
2023/03/21 00:01:05;;;;;;;5.07;4.57;;;;;;;;;;1030193;28;20097;-60
2023/03/21 00:01:36;;;;;;;4.75;3.88;;;;;;;;;;1030502;28;20026;-60
2023/03/21 00:02:07;;;;;;;4.67;4.20;;;;;;;;;;1030195;28;20026;-60
2023/03/21 00:02:38;;;;;;;4.50;4.10;;;;;;;;;;1030333;28;20268;-60
2023/03/21 00:03:09;;;;;;;4.60;4.20;;;;;;;;;;1029986;28;20022;-60
2023/03/21 00:03:42;;;;;;;4.50;4.10;;;;;;;;;;1030038;28;20940;-60
2023/03/21 00:04:12;;;;;;;5.03;4.15;;;;;;;;;;1030036;28;20023;-60
2023/03/21 00:04:44;;;;;;;4.87;4.37;;;;;;;;;;1030333;28;20412;-60
2023/03/21 00:05:15;;;;;;;4.30;3.88;;;;;;;;;;1030273;28;20277;-60
2023/03/21 00:05:50;;;;;;;4.22;3.83;;;;;;;;;;1029958;28;20733;-60
2023/03/21 00:06:21;;;;;;;4.57;4.03;;;;;;;;;;1030305;28;20065;-60
2023/03/21 00:06:53;;;;;;;5.13;4.18;;;;;;;;;;1030292;28;20038;-59
2023/03/21 00:07:24;;;;;;;4.00;3.70;;;;;;;;;;1030191;28;20053;-59
2023/03/21 00:07:55;;;;;;;4.50;4.10;;;;;;;;;;1030428;28;20018;-59
2023/03/21 00:08:26;;;;;;;4.43;4.03;;;;;;;;;;1030361;28;20061;-60
2023/03/21 00:08:57;;;;;;;4.75;4.18;;;;;;;;;;1030252;28;20037;-59
2023/03/21 00:09:28;;;;;;;5.45;4.20;;;;;;;;;;1029950;28;20076;-59
2023/03/21 00:09:59;;;;;;;4.80;4.05;;;;;;;;;;1030620;28;20390;-60
2023/03/21 00:10:30;;;;;;;4.33;3.30;;;;;;;;;;1030100;28;20023;-61
2023/03/21 00:11:02;;;;;;;4.28;3.88;;;;;;;;;;1030305;28;20256;-60
2023/03/21 00:11:33;;;;;;;4.43;4.00;;;;;;;;;;1030187;28;20034;-60
2023/03/21 00:12:08;;;;;;;4.07;3.70;;;;;;;;;;1030574;28;20129;-59
2023/03/21 00:12:39;;;;;;;4.35;3.72;;;;;;;;;;1030063;28;20040;-59
2023/03/21 00:13:11;;;;;;;4.15;3.75;;;;;;;;;;1030463;28;20038;-60
2023/03/21 00:13:43;;;;;;;4.68;3.85;;;;;;;;;;1030186;28;20023;-59
2023/03/21 00:14:18;;;;;;;4.63;4.05;;;;;;;;;;1030251;28;20026;-60
2023/03/21 00:14:49;;;;;;;4.75;4.32;;;;;;;;;;1030216;28;20513;-60
2023/03/21 00:15:20;;;;;;;4.40;4.00;;;;;;;;;;1030422;28;20054;-59
2023/03/21 00:15:53;;;;;;;5.18;4.32;;;;;;;;;;1029808;28;20030;-59
2023/03/21 00:16:25;;;;;;;4.88;4.20;;;;;;;;;;1030027;28;20642;-60
2023/03/21 00:16:56;;;;;;;5.25;3.92;;;;;;;;;;1029803;28;20073;-60
2023/03/21 00:17:30;;;;;;;4.35;3.85;;;;;;;;;;1029835;28;20033;-59
2023/03/21 00:18:02;;;;;;;4.60;3.85;;;;;;;;;;1029852;28;20130;-59
2023/03/21 00:18:40;;;;;;;5.32;4.45;;;;;;;;;;1026277;28;20034;-59
2023/03/21 00:19:13;;;;;;;4.60;3.72;;;;;;;;;;1026448;28;20493;-59
2023/03/21 00:19:45;;;;;;;5.70;4.13;;;;;;;;;;1030035;28;20464;-60
2023/03/21 00:20:16;;;;;;;4.65;3.75;;;;;;;;;;1030415;28;20621;-59
2023/03/21 00:20:57;;;;;;;5.10;4.32;;;;;;;;;;1030028;28;20037;-59
2023/03/21 00:21:31;;;;;;;4.80;3.92;;;;;;;;;;1026355;28;20023;-59
2023/03/21 00:22:02;;;;;;;4.82;3.95;;;;;;;;;;1026296;28;20022;-60
2023/03/21 00:22:36;;;;;;;4.50;4.00;;;;;;;;;;1026312;28;20046;-59
2023/03/21 00:23:07;;;;;;;4.85;4.38;;;;;;;;;;1029757;28;20265;-60
2023/03/21 00:23:38;;;;;;;4.33;3.93;;;;;;;;;;1030592;28;20018;-59
2023/03/21 00:24:09;;;;;;;4.72;4.22;;;;;;;;;;1030173;28;20640;-59
2023/03/21 00:24:40;;;;;;;4.57;4.18;;;;;;;;;;1030290;28;20014;-59
2023/03/21 00:25:11;;;;;;;4.07;3.63;;;;;;;;;;1030018;28;20090;-59
2023/03/21 00:25:42;;;;;;;4.20;3.80;;;;;;;;;;1030106;28;20308;-59
2023/03/21 00:26:14;;;;;;;5.53;4.40;;;;;;;;;;1030061;28;20088;-59
2023/03/21 00:26:45;;;;;;;5.70;4.03;;;;;;;;;;1030284;28;20377;-59
2023/03/21 00:27:16;;;;;;;5.10;4.00;;;;;;;;;;1030086;28;20022;-59
2023/03/21 00:27:47;;;;;;;4.47;4.07;;;;;;;;;;1030345;28;20019;-59
2023/03/21 00:28:18;;;;;;;5.67;4.53;;;;;;;;;;1030036;28;20015;-59
2023/03/21 00:28:50;;;;;;;4.37;3.97;;;;;;;;;;1030315;28;20253;-58
2023/03/21 00:29:20;;;;;;;4.82;4.43;;;;;;;;;;1030257;28;20254;-59
2023/03/21 00:29:51;;;;;;;4.27;3.87;;;;;;;;;;1030296;28;20122;-59
2023/03/21 00:30:22;;;;;;;4.80;4.30;;;;;;;;;;1030061;28;20285;-59
2023/03/21 00:30:58;;;;;;;4.35;3.88;;;;;;;;;;1030152;28;20026;-60
2023/03/21 00:31:29;;;;;;;4.30;3.90;;;;;;;;;;1030118;28;20027;-60
2023/03/21 00:32:00;;;;;;;4.68;4.03;;;;;;;;;;1030337;28;20023;-59
2023/03/21 00:32:30;;;;;;;4.87;4.33;;;;;;;;;;1030132;28;20011;-60
2023/03/21 00:33:01;;;;;;;5.18;4.43;;;;;;;;;;1030402;28;20794;-59
2023/03/21 00:33:34;;;;;;;4.78;4.22;;;;;;;;;;1029879;28;20098;-60
2023/03/21 00:34:05;;;;;;;4.88;4.32;;;;;;;;;;1030536;28;20018;-60
2023/03/21 00:34:37;;;;;;;4.32;3.92;;;;;;;;;;1030051;28;20030;-60
2023/03/21 00:35:08;;;;;;;5.28;4.55;;;;;;;;;;1030253;28;20026;-59
2023/03/21 00:35:42;;;;;;;5.05;4.40;;;;;;;;;;1029968;28;20022;-59
2023/03/21 00:36:13;;;;;;;4.25;3.80;;;;;;;;;;1030544;28;20117;-59
2023/03/21 00:36:44;;;;;;;4.38;3.97;;;;;;;;;;1029948;28;20025;-59
2023/03/21 00:37:17;;;;;;;5.25;4.35;;;;;;;;;;1030470;28;20026;-59
2023/03/21 00:37:48;;;;;;;5.75;4.78;;;;;;;;;;1030067;28;20175;-60
2023/03/21 00:38:20;;;;;;;4.65;4.20;;;;;;;;;;1030449;28;20425;-59
2023/03/21 00:38:51;;;;;;;4.35;3.90;;;;;;;;;;1029849;28;20018;-60
2023/03/21 00:39:22;;;;;;;5.05;4.55;;;;;;;;;;1030682;28;20500;-59
2023/03/21 00:39:53;;;;;;;4.90;4.50;;;;;;;;;;1030012;28;20824;-60
2023/03/21 00:40:24;;;;;;;4.75;4.18;;;;;;;;;;1030435;28;20303;-59
2023/03/21 00:40:55;;;;;;;5.73;4.43;;;;;;;;;;1029725;28;20104;-59
2023/03/21 00:41:26;;;;;;;4.70;4.23;;;;;;;;;;1030568;28;20285;-59
2023/03/21 00:41:57;;;;;;;4.80;4.37;;;;;;;;;;1029867;28;20648;-60
2023/03/21 00:42:28;;;;;;;5.50;4.53;;;;;;;;;;1030391;28;20265;-60
2023/03/21 00:42:59;;;;;;;4.60;4.10;;;;;;;;;;1030120;28;20265;-60
2023/03/21 00:43:30;;;;;;;4.88;4.10;;;;;;;;;;1030263;28;20273;-59
2023/03/21 00:44:02;;;;;;;4.95;4.13;;;;;;;;;;1029943;28;20042;-59
2023/03/21 00:44:35;;;;;;;4.38;3.92;;;;;;;;;;1030313;28;20106;-60
2023/03/21 00:45:09;;;;;;;4.47;4.05;;;;;;;;;;1029950;28;20026;-60
2023/03/21 00:45:40;;;;;;;4.90;4.50;;;;;;;;;;1029964;28;20042;-60
2023/03/21 00:46:11;;;;;;;5.28;4.75;;;;;;;;;;1030076;28;20022;-59
2023/03/21 00:46:42;;;;;;;5.95;4.75;;;;;;;;;;1030445;28;20037;-59
2023/03/21 00:47:13;;;;;;;5.03;4.53;;;;;;;;;;1029926;28;20026;-59
2023/03/21 00:47:44;;;;;;;4.90;4.50;;;;;;;;;;1030347;28;20428;-59
2023/03/21 00:48:15;;;;;;;4.90;4.50;;;;;;;;;;1030072;28;20022;-60
2023/03/21 00:48:46;;;;;;;4.73;4.30;;;;;;;;;;1030134;28;20363;-60
2023/03/21 00:49:19;;;;;;;5.43;4.43;;;;;;;;;;1030100;28;20265;-59
2023/03/21 00:49:50;;;;;;;4.97;4.57;;;;;;;;;;1030259;28;20308;-60
2023/03/21 00:50:21;;;;;;;4.93;4.17;;;;;;;;;;1030027;28;20116;-59
2023/03/21 00:50:53;;;;;;;5.10;4.23;;;;;;;;;;1030322;28;20289;-59
2023/03/21 00:51:27;;;;;;;5.13;4.63;;;;;;;;;;1030221;28;20266;-59
2023/03/21 00:51:58;;;;;;;4.85;4.45;;;;;;;;;;1030499;28;20022;-59
2023/03/21 00:52:29;;;;;;;5.80;4.85;;;;;;;;;;1029893;28;20026;-59
2023/03/21 00:53:00;;;;;;;5.00;4.50;;;;;;;;;;1030715;28;20129;-59
2023/03/21 00:53:31;;;;;;;5.40;4.90;;;;;;;;;;1030964;28;20029;-59
2023/03/21 00:54:04;;;;;;;5.23;4.73;;;;;;;;;;1031163;28;20018;-59
2023/03/21 00:54:36;;;;;;;6.78;5.00;;;;;;;;;;1030640;28;20300;-59
2023/03/21 00:55:07;;;;;;;5.80;5.07;;;;;;;;;;1031056;28;20031;-59
2023/03/21 00:55:38;;;;;;;5.82;5.32;;;;;;;;;;1030485;28;20092;-59
2023/03/21 00:56:09;;;;;;;5.25;4.65;;;;;;;;;;1031014;28;20022;-59
2023/03/21 00:56:40;;;;;;;5.40;4.90;;;;;;;;;;1030910;28;20759;-59
2023/03/21 00:57:11;;;;;;;5.50;5.00;;;;;;;;;;1030972;28;20767;-59
2023/03/21 00:57:44;;;;;;;5.63;5.10;;;;;;;;;;1030770;28;20393;-59
2023/03/21 00:58:15;;;;;;;5.90;5.30;;;;;;;;;;1030839;28;20273;-59
2023/03/21 00:58:46;;;;;;;5.93;5.43;;;;;;;;;;1030569;28;20129;-58
2023/03/21 00:59:17;;;;;;;5.60;5.10;;;;;;;;;;1030562;28;20022;-58
2023/03/21 00:59:48;;;;;;;5.87;4.97;;;;;;;;;;1030397;28;20277;-59
2023/03/21 01:00:19;;;;;;;5.47;4.97;;;;;;;;;;1030938;28;20264;-59
2023/03/21 01:00:50;;;;;;;5.82;5.32;;;;;;;;;;1030272;28;20034;-59
2023/03/21 01:01:21;;;;;;;6.17;5.67;;;;;;;;;;1031003;28;20084;-58
2023/03/21 01:01:52;;;;;;;5.50;5.00;;;;;;;;;;1030542;28;20266;-58
2023/03/21 01:02:25;;;;;;;5.87;5.37;;;;;;;;;;1030691;28;20026;-58
2023/03/21 01:02:57;;;;;;;6.00;5.50;;;;;;;;;;1030333;28;20261;-59
2023/03/21 01:03:28;;;;;;;5.57;5.00;;;;;;;;;;1030835;28;20535;-58
2023/03/21 01:04:03;;;;;;;6.43;5.40;;;;;;;;;;1029766;28;20030;-58
2023/03/21 01:04:34;;;;;;;5.45;4.95;;;;;;;;;;1030658;28;20262;-59
2023/03/21 01:05:05;;;;;;;5.70;5.20;;;;;;;;;;1030596;28;20060;-58
2023/03/21 01:06:32;;;;;;;5.00;4.60;;;;;;;;;;1026897;28;20085;-59
2023/03/21 01:07:04;;;;;;;6.15;5.55;;;;;;;;;;1026505;28;20046;-59
2023/03/21 01:07:35;;;;;;;6.83;5.33;;;;;;;;;;1028732;28;20022;-59
2023/03/21 01:08:06;;;;;;;5.33;4.93;;;;;;;;;;1030500;28;20274;-59
2023/03/21 01:08:39;;;;;;;6.03;5.50;;;;;;;;;;1030739;28;20257;-60
2023/03/21 01:09:15;;;;;;;6.43;5.82;;;;;;;;;;1030280;28;20031;-59
2023/03/21 01:09:46;;;;;;;6.30;5.70;;;;;;;;;;1030758;28;20037;-59
2023/03/21 01:10:17;;;;;;;6.03;5.53;;;;;;;;;;1030679;28;20026;-59
2023/03/21 01:10:50;;;;;;;6.10;5.50;;;;;;;;;;1030417;28;20026;-60
2023/03/21 01:11:23;;;;;;;5.80;5.30;;;;;;;;;;1030698;28;20030;-59
2023/03/21 01:11:54;;;;;;;5.78;5.28;;;;;;;;;;1030788;28;20030;-60
2023/03/21 01:12:26;;;;;;;6.47;5.87;;;;;;;;;;1030645;28;20287;-59
2023/03/21 01:12:57;;;;;;;6.00;5.45;;;;;;;;;;1030740;28;20280;-59
2023/03/21 01:13:28;;;;;;;6.80;6.00;;;;;;;;;;1030817;28;20821;-59
2023/03/21 01:13:59;;;;;;;5.27;4.77;;;;;;;;;;1031140;28;20269;-60
2023/03/21 01:14:30;;;;;;;5.68;5.18;;;;;;;;;;1030277;28;20261;-59
2023/03/21 01:15:01;;;;;;;5.93;5.43;;;;;;;;;;1030810;28;20014;-59
2023/03/21 01:15:32;;;;;;;5.82;5.32;;;;;;;;;;1030357;28;20612;-60
2023/03/21 01:16:04;;;;;;;5.38;4.90;;;;;;;;;;1030408;28;20469;-59
2023/03/21 01:16:35;;;;;;;7.00;5.82;;;;;;;;;;1030249;28;20077;-59
2023/03/21 01:17:06;;;;;;;5.40;4.90;;;;;;;;;;1030548;28;20038;-59
2023/03/21 01:17:37;;;;;;;5.93;5.35;;;;;;;;;;1030150;28;20030;-59
2023/03/21 01:18:08;;;;;;;5.27;4.77;;;;;;;;;;1030642;28;20026;-60
2023/03/21 01:18:40;;;;;;;6.00;5.50;;;;;;;;;;1030465;28;20343;-59
2023/03/21 01:19:13;;;;;;;5.60;5.10;;;;;;;;;;1030694;28;20118;-59
2023/03/21 01:19:44;;;;;;;5.95;5.35;;;;;;;;;;1030364;28;20337;-59
2023/03/21 01:20:15;;;;;;;5.97;5.47;;;;;;;;;;1030602;28;20034;-59
2023/03/21 01:20:46;;;;;;;5.43;4.93;;;;;;;;;;1030371;28;20038;-60
2023/03/21 01:21:17;;;;;;;5.55;5.13;;;;;;;;;;1030419;28;20559;-60
2023/03/21 01:21:48;;;;;;;6.10;5.50;;;;;;;;;;1028929;28;20080;-59
2023/03/21 01:22:20;;;;;;;6.10;5.50;;;;;;;;;;1030623;28;20432;-59
2023/03/21 01:22:51;;;;;;;6.00;5.43;;;;;;;;;;1030376;28;20091;-59
2023/03/21 01:23:22;;;;;;;6.85;6.13;;;;;;;;;;1030782;28;20095;-59
2023/03/21 01:23:53;;;;;;;6.32;5.72;;;;;;;;;;1030356;28;20024;-59
2023/03/21 01:24:24;;;;;;;6.10;5.50;;;;;;;;;;1030785;28;20025;-60
2023/03/21 01:24:55;;;;;;;5.97;5.43;;;;;;;;;;1030356;28;20269;-59
2023/03/21 01:25:26;;;;;;;6.65;6.03;;;;;;;;;;1030613;28;20134;-59
2023/03/21 01:25:57;;;;;;;6.15;5.55;;;;;;;;;;1029899;28;20050;-59
2023/03/21 01:26:29;;;;;;;6.07;5.50;;;;;;;;;;1030540;28;20015;-61
2023/03/21 01:27:01;;;;;;;6.00;5.50;;;;;;;;;;1030546;28;20077;-59
2023/03/21 01:27:32;;;;;;;7.15;6.55;;;;;;;;;;1030725;28;20022;-59
2023/03/21 01:28:03;;;;;;;7.60;6.53;;;;;;;;;;1030346;28;20010;-59
2023/03/21 01:28:35;;;;;;;6.63;6.03;;;;;;;;;;1030618;28;20269;-59
2023/03/21 01:29:06;;;;;;;6.47;5.88;;;;;;;;;;1030431;28;20119;-64
2023/03/21 01:29:37;;;;;;;6.17;5.67;;;;;;;;;;1030533;28;20033;-60
2023/03/21 01:30:08;;;;;;;6.73;5.83;;;;;;;;;;1030539;28;20341;-59
2023/03/21 01:30:43;;;;;;;6.82;6.22;;;;;;;;;;1030954;28;20304;-59
2023/03/21 01:31:15;;;;;;;6.38;5.80;;;;;;;;;;1030729;28;20058;-59
2023/03/21 01:31:46;;;;;;;7.07;6.40;;;;;;;;;;1030961;28;20114;-59
2023/03/21 01:32:17;;;;;;;6.03;5.47;;;;;;;;;;1030540;28;20017;-59
2023/03/21 01:32:49;;;;;;;6.88;6.25;;;;;;;;;;1030792;28;20026;-60
2023/03/21 01:33:21;;;;;;;6.55;6.05;;;;;;;;;;1030798;28;20021;-59
2023/03/21 01:33:52;;;;;;;6.93;6.22;;;;;;;;;;1030694;28;20007;-60
2023/03/21 01:34:23;;;;;;;6.50;5.90;;;;;;;;;;1030711;28;20014;-59
2023/03/21 01:34:54;;;;;;;6.70;6.10;;;;;;;;;;1030918;28;20320;-59
2023/03/21 01:35:25;;;;;;;6.65;6.00;;;;;;;;;;1030584;28;20015;-59
2023/03/21 01:35:56;;;;;;;6.47;5.88;;;;;;;;;;1030573;28;20106;-59
2023/03/21 01:36:27;;;;;;;7.15;6.45;;;;;;;;;;1030773;28;20045;-59
2023/03/21 01:36:58;;;;;;;7.10;6.40;;;;;;;;;;1028895;28;20015;-59
2023/03/21 01:37:31;;;;;;;6.97;6.37;;;;;;;;;;1030701;28;20393;-59
2023/03/21 01:38:02;;;;;;;6.47;5.88;;;;;;;;;;1030741;28;20919;-59
2023/03/21 01:38:33;;;;;;;7.15;6.45;;;;;;;;;;1030587;28;20660;-59
2023/03/21 01:39:05;;;;;;;6.65;6.05;;;;;;;;;;1030758;28;20037;-59
2023/03/21 01:39:36;;;;;;;6.35;5.78;;;;;;;;;;1030763;28;20092;-59
2023/03/21 01:40:11;;;;;;;5.65;5.15;;;;;;;;;;1030962;28;20100;-59
2023/03/21 01:40:43;;;;;;;6.30;5.70;;;;;;;;;;1030545;28;20108;-59
2023/03/21 01:41:24;;;;;;;7.22;6.53;;;;;;;;;;1030758;28;20538;-59
2023/03/21 01:41:55;;;;;;;6.85;6.15;;;;;;;;;;1030629;28;20037;-59
2023/03/21 01:42:26;;;;;;;6.80;6.20;;;;;;;;;;1030928;28;20018;-59
2023/03/21 01:42:57;;;;;;;7.40;6.70;;;;;;;;;;1030558;28;20319;-59
2023/03/21 01:43:30;;;;;;;7.23;6.53;;;;;;;;;;1030905;28;20340;-59
2023/03/21 01:44:01;;;;;;;7.15;6.45;;;;;;;;;;1030707;28;20937;-59
2023/03/21 01:44:32;;;;;;;6.88;6.25;;;;;;;;;;1030889;28;20531;-59
2023/03/21 01:45:05;;;;;;;6.57;6.03;;;;;;;;;;1030594;28;20496;-59
2023/03/21 01:45:57;;;;;;;8.10;7.05;;;;;;;;;;1030720;28;20268;-59
2023/03/21 01:46:36;;;;;;;6.18;5.68;;;;;;;;;;1014400;29;20046;-59
2023/03/21 01:47:07;;;;;;;7.53;6.78;;;;;;;;;;1014088;29;20025;-60
2023/03/21 01:47:38;;;;;;;6.63;6.03;;;;;;;;;;1029101;28;20046;-59
2023/03/21 01:48:10;;;;;;;7.43;6.73;;;;;;;;;;1030605;28;20717;-59
2023/03/21 01:48:42;;;;;;;6.88;6.28;;;;;;;;;;1030796;28;20632;-59
2023/03/21 01:49:24;;;;;;;7.30;6.60;;;;;;;;;;1030560;28;20029;-59
2023/03/21 01:49:57;;;;;;;6.88;6.25;;;;;;;;;;1030800;28;20029;-59
2023/03/21 01:50:28;;;;;;;6.60;5.97;;;;;;;;;;1030507;28;20053;-59
2023/03/21 01:51:00;;;;;;;7.45;6.40;;;;;;;;;;1030810;28;20022;-59
2023/03/21 01:51:33;;;;;;;6.95;6.35;;;;;;;;;;1030679;28;20032;-59
2023/03/21 01:52:08;;;;;;;6.38;5.78;;;;;;;;;;1030914;28;20538;-59
2023/03/21 01:52:40;;;;;;;7.30;6.70;;;;;;;;;;1030921;28;20026;-59
2023/03/21 01:53:12;;;;;;;6.85;6.25;;;;;;;;;;1030586;28;20034;-59
2023/03/21 01:53:43;;;;;;;6.97;6.38;;;;;;;;;;1030892;28;20661;-59
2023/03/21 01:54:17;;;;;;;7.00;6.32;;;;;;;;;;1030488;28;20050;-59
2023/03/21 01:54:48;;;;;;;6.45;5.85;;;;;;;;;;1030826;28;20096;-59
2023/03/21 01:55:19;;;;;;;7.00;6.40;;;;;;;;;;1030634;28;20122;-59
2023/03/21 01:55:50;;;;;;;6.90;6.20;;;;;;;;;;1030454;28;20022;-59
2023/03/21 01:56:27;;;;;;;7.38;6.78;;;;;;;;;;1030596;28;20250;-59
2023/03/21 01:57:00;;;;;;;8.80;6.38;;;;;;;;;;1030838;28;20027;-59
2023/03/21 01:57:33;;;;;;;7.00;6.35;;;;;;;;;;1030393;28;20109;-60
2023/03/21 01:58:06;;;;;;;7.30;6.60;;;;;;;;;;1031014;28;20521;-59
2023/03/21 01:58:38;;;;;;;7.22;6.63;;;;;;;;;;1030654;28;20481;-59
2023/03/21 01:59:13;;;;;;;7.47;6.78;;;;;;;;;;1030899;28;20033;-60
2023/03/21 01:59:53;;;;;;;6.82;6.22;;;;;;;;;;1030777;28;20026;-59
2023/03/21 02:00:28;;;;;;;7.10;6.40;;;;;;;;;;1030918;28;20023;-59
2023/03/21 02:00:59;;;;;;;8.40;7.03;;;;;;;;;;1030503;28;20034;-59
2023/03/21 02:01:33;;;;;;;6.88;6.28;;;;;;;;;;1030652;28;20050;-59
2023/03/21 02:02:06;;;;;;;6.65;6.05;;;;;;;;;;1030907;28;20841;-59
2023/03/21 02:02:37;;;;;;;7.53;6.72;;;;;;;;;;1030457;28;20033;-59
2023/03/21 02:03:10;;;;;;;7.57;6.88;;;;;;;;;;1030824;28;20043;-59
2023/03/21 02:03:51;;;;;;;8.40;7.57;;;;;;;;;;1029639;28;20732;-59
2023/03/21 02:04:26;;;;;;;8.73;6.80;;;;;;;;;;1029916;28;20055;-58
2023/03/21 02:04:58;;;;;;;8.13;7.35;;;;;;;;;;1029927;28;20038;-59
2023/03/21 02:05:29;;;;;;;7.88;7.18;;;;;;;;;;1030678;28;20034;-58
2023/03/21 02:06:02;;;;;;;7.15;6.55;;;;;;;;;;1030372;28;20037;-58
2023/03/21 02:06:42;;;;;;;8.05;7.00;;;;;;;;;;1030804;28;20038;-58
2023/03/21 02:07:16;;;;;;;7.45;6.45;;;;;;;;;;1030195;28;20048;-58
2023/03/21 02:07:48;;;;;;;7.65;6.95;;;;;;;;;;1030669;28;20560;-59
2023/03/21 02:08:20;;;;;;;7.43;6.72;;;;;;;;;;1030584;28;20022;-58
2023/03/21 02:08:51;;;;;;;7.82;6.60;;;;;;;;;;1030707;28;20425;-58
2023/03/21 02:09:25;;;;;;;8.27;7.47;;;;;;;;;;1030487;28;20026;-58
2023/03/21 02:09:57;;;;;;;7.82;7.13;;;;;;;;;;1030607;28;20025;-58
2023/03/21 02:10:29;;;;;;;7.43;6.80;;;;;;;;;;1030555;28;20037;-58
2023/03/21 02:11:00;;;;;;;7.13;6.53;;;;;;;;;;1030105;28;20042;-58
2023/03/21 02:11:31;;;;;;;8.40;7.60;;;;;;;;;;1030324;28;20037;-58
2023/03/21 02:12:03;;;;;;;7.70;6.97;;;;;;;;;;1030919;28;20046;-58
2023/03/21 02:12:34;;;;;;;7.28;6.68;;;;;;;;;;1030569;28;20034;-58
2023/03/21 02:13:11;;;;;;;7.55;6.85;;;;;;;;;;1030650;28;20191;-58
2023/03/21 02:13:42;;;;;;;7.60;6.50;;;;;;;;;;1030839;28;20062;-58
2023/03/21 02:14:14;;;;;;;7.35;6.65;;;;;;;;;;1030502;28;20033;-59
2023/03/21 02:14:47;;;;;;;8.05;7.32;;;;;;;;;;1030674;28;20122;-59
2023/03/21 02:15:18;;;;;;;8.05;7.18;;;;;;;;;;1030630;28;20034;-59
2023/03/21 02:15:59;;;;;;;7.20;6.50;;;;;;;;;;1030413;28;20081;-59
2023/03/21 02:16:47;;;;;;;7.95;7.25;;;;;;;;;;1030137;28;20030;-59
2023/03/21 02:17:18;;;;;;;9.80;7.03;;;;;;;;;;1030565;28;20591;-59
2023/03/21 02:18:08;;;;;;;7.97;7.17;;;;;;;;;;1030580;28;20758;-59
2023/03/21 02:18:39;;;;;;;7.25;6.57;;;;;;;;;;1028967;28;20672;-59
2023/03/21 02:19:28;;;;;;;7.70;6.90;;;;;;;;;;1030816;28;20072;-59
2023/03/21 02:19:59;;;;;;;7.85;7.15;;;;;;;;;;1030699;28;20027;-58
2023/03/21 02:20:33;;;;;;;8.70;6.90;;;;;;;;;;1030427;28;20420;-58
2023/03/21 02:21:04;;;;;;;8.18;7.38;;;;;;;;;;1030796;28;20038;-58
2023/03/21 02:21:54;;;;;;;8.50;7.60;;;;;;;;;;1030262;28;20026;-58
2023/03/21 02:22:28;;;;;;;8.40;7.47;;;;;;;;;;1030746;28;20269;-58
2023/03/21 02:23:11;;;;;;;7.47;6.57;;;;;;;;;;1030355;28;20034;-58
2023/03/21 02:23:52;;;;;;;8.20;7.47;;;;;;;;;;1030408;28;20030;-58
2023/03/21 02:24:41;;;;;;;7.38;6.70;;;;;;;;;;1030941;28;20080;-60
2023/03/21 02:25:31;;;;;;;7.22;6.53;;;;;;;;;;1030697;28;20026;-59
2023/03/21 02:26:21;;;;;;;7.72;7.03;;;;;;;;;;1030394;28;20058;-60
2023/03/21 02:26:52;;;;;;;7.90;7.03;;;;;;;;;;1030386;28;20439;-60
2023/03/21 02:27:24;;;;;;;7.80;6.97;;;;;;;;;;1030964;28;20542;-58
2023/03/21 02:27:55;;;;;;;7.22;6.53;;;;;;;;;;1030292;28;20470;-57
2023/03/21 02:28:29;;;;;;;7.22;6.53;;;;;;;;;;1030655;28;20034;-58
2023/03/21 02:29:03;;;;;;;7.13;6.22;;;;;;;;;;1030674;28;20118;-59
2023/03/21 02:29:53;;;;;;;7.22;6.53;;;;;;;;;;1030634;28;20061;-58
2023/03/21 02:30:37;;;;;;;6.82;6.22;;;;;;;;;;1030505;28;20022;-58
2023/03/21 02:31:25;;;;;;;7.85;7.05;;;;;;;;;;1030382;28;20494;-58
2023/03/21 02:32:06;;;;;;;8.18;6.05;;;;;;;;;;1030645;28;20551;-58
2023/03/21 02:32:56;;;;;;;6.50;5.90;;;;;;;;;;1030577;28;20036;-59
2023/03/21 02:33:35;;;;;;;7.22;6.53;;;;;;;;;;1030084;28;20034;-58
2023/03/21 02:34:21;;;;;;;7.47;6.78;;;;;;;;;;1030587;28;20445;-58
2023/03/21 02:34:52;;;;;;;7.88;7.18;;;;;;;;;;1030686;28;20026;-58
2023/03/21 02:35:49;;;;;;;7.43;6.73;;;;;;;;;;1030317;28;20022;-59
2023/03/21 02:36:44;;;;;;;7.45;6.75;;;;;;;;;;1026416;28;20799;-58
2023/03/21 02:37:15;;;;;;;8.68;7.13;;;;;;;;;;1017964;29;20036;-58
2023/03/21 02:37:48;;;;;;;7.75;6.72;;;;;;;;;;1017954;29;20038;-60
2023/03/21 02:38:31;;;;;;;7.47;6.78;;;;;;;;;;1025866;28;20062;-60
2023/03/21 02:39:03;;;;;;;7.47;6.60;;;;;;;;;;1026822;28;20030;-58
2023/03/21 02:39:53;;;;;;;8.10;7.38;;;;;;;;;;1026451;28;20481;-58
2023/03/21 02:40:26;;;;;;;7.78;7.05;;;;;;;;;;1028880;28;20093;-60
2023/03/21 02:41:02;;;;;;;6.82;6.20;;;;;;;;;;1030518;28;20363;-58
2023/03/21 02:41:40;;;;;;;7.85;6.93;;;;;;;;;;1030472;28;20117;-58
2023/03/21 02:42:17;;;;;;;7.65;6.85;;;;;;;;;;1030641;28;20022;-58
2023/03/21 02:42:54;;;;;;;7.53;6.82;;;;;;;;;;1030465;28;20026;-58
2023/03/21 02:43:29;;;;;;;7.07;6.45;;;;;;;;;;1030795;28;20019;-58
2023/03/21 02:44:10;;;;;;;6.88;6.28;;;;;;;;;;1030489;28;20112;-58
2023/03/21 02:44:43;;;;;;;8.07;7.28;;;;;;;;;;1030375;28;20034;-57
2023/03/21 02:45:19;;;;;;;7.13;6.43;;;;;;;;;;1030387;28;20105;-58
2023/03/21 02:45:57;;;;;;;7.05;6.45;;;;;;;;;;1030137;28;20030;-58
2023/03/21 02:46:33;;;;;;;7.35;6.65;;;;;;;;;;1030565;28;20069;-58
2023/03/21 02:47:11;;;;;;;7.93;7.15;;;;;;;;;;1030385;28;20044;-58
2023/03/21 02:47:46;;;;;;;7.68;6.80;;;;;;;;;;1030595;28;20088;-58
2023/03/21 02:48:38;;;;;;;7.05;6.43;;;;;;;;;;1030448;28;20081;-59
2023/03/21 02:49:13;;;;;;;8.10;6.75;;;;;;;;;;1030168;28;20022;-58
2023/03/21 02:49:50;;;;;;;7.30;6.60;;;;;;;;;;1030724;28;20030;-58
2023/03/21 02:50:23;;;;;;;8.63;6.65;;;;;;;;;;1030338;28;20019;-58
2023/03/21 02:50:56;;;;;;;7.07;6.47;;;;;;;;;;1030569;28;20022;-58
2023/03/21 02:51:28;;;;;;;8.02;7.22;;;;;;;;;;1030517;28;20022;-59
2023/03/21 02:52:00;;;;;;;7.50;6.70;;;;;;;;;;1030655;28;20737;-59
2023/03/21 02:52:33;;;;;;;7.57;6.75;;;;;;;;;;1030364;28;20018;-59
2023/03/21 02:53:06;;;;;;;7.18;6.15;;;;;;;;;;1030545;28;20097;-58
2023/03/21 02:53:38;;;;;;;7.80;7.00;;;;;;;;;;1030384;28;20022;-58
2023/03/21 02:54:11;;;;;;;7.80;7.00;;;;;;;;;;1030283;28;20033;-58
2023/03/21 02:54:43;;;;;;;7.38;6.60;;;;;;;;;;1030604;28;20027;-58
2023/03/21 02:55:17;;;;;;;6.97;6.28;;;;;;;;;;1030267;28;20745;-58
2023/03/21 02:55:49;;;;;;;7.07;6.47;;;;;;;;;;1030100;28;20068;-58
2023/03/21 02:56:21;;;;;;;7.57;6.88;;;;;;;;;;1029096;28;20026;-58
2023/03/21 02:56:53;;;;;;;7.88;7.07;;;;;;;;;;1030537;28;20437;-58
2023/03/21 02:57:24;;;;;;;7.15;6.45;;;;;;;;;;1030321;28;20822;-59
2023/03/21 02:57:56;;;;;;;7.65;6.85;;;;;;;;;;1030354;28;20122;-59
2023/03/21 02:58:28;;;;;;;7.13;6.43;;;;;;;;;;1030368;28;20149;-59
2023/03/21 02:59:00;;;;;;;6.93;6.32;;;;;;;;;;1030604;28;20621;-58
2023/03/21 02:59:32;;;;;;;7.90;6.30;;;;;;;;;;1030172;28;20049;-59
2023/03/21 03:00:07;;;;;;;6.38;5.78;;;;;;;;;;1030791;28;20088;-59
2023/03/21 03:00:39;;;;;;;7.25;6.55;;;;;;;;;;1030220;28;20390;-58
2023/03/21 03:01:10;;;;;;;7.95;7.15;;;;;;;;;;1030300;28;20041;-58
2023/03/21 03:01:41;;;;;;;6.88;6.28;;;;;;;;;;1030423;28;20014;-58
2023/03/21 03:02:12;;;;;;;7.53;6.00;;;;;;;;;;1030636;28;20014;-59
2023/03/21 03:02:43;;;;;;;7.93;7.18;;;;;;;;;;1026283;28;20019;-58
2023/03/21 03:03:15;;;;;;;6.65;6.05;;;;;;;;;;1026774;28;20027;-58
2023/03/21 03:03:46;;;;;;;7.57;6.88;;;;;;;;;;1025598;28;20019;-58
2023/03/21 03:04:21;;;;;;;7.32;6.63;;;;;;;;;;1029206;28;20113;-59
2023/03/21 03:04:54;;;;;;;6.78;6.18;;;;;;;;;;1025999;28;20011;-58
2023/03/21 03:05:26;;;;;;;7.18;6.53;;;;;;;;;;1026736;28;20047;-58
2023/03/21 03:05:58;;;;;;;7.35;6.15;;;;;;;;;;1028680;28;20037;-58
2023/03/21 03:06:40;;;;;;;6.38;5.85;;;;;;;;;;1030554;28;20537;-58
2023/03/21 03:07:26;;;;;;;6.47;5.90;;;;;;;;;;1030001;28;20018;-58
2023/03/21 03:08:04;;;;;;;6.95;6.25;;;;;;;;;;1026194;28;20023;-58
2023/03/21 03:09:01;;;;;;;7.10;6.45;;;;;;;;;;1026427;28;20102;-58
2023/03/21 03:09:52;;;;;;;6.20;5.60;;;;;;;;;;1026541;28;20026;-58
2023/03/21 03:10:23;;;;;;;7.00;6.32;;;;;;;;;;1026507;28;20084;-58
2023/03/21 03:11:13;;;;;;;7.07;6.37;;;;;;;;;;1029203;28;20014;-58
2023/03/21 03:11:45;;;;;;;6.88;6.28;;;;;;;;;;1030612;28;20967;-60
2023/03/21 03:12:27;;;;;;;7.70;6.93;;;;;;;;;;1030413;28;20026;-58
2023/03/21 03:13:15;;;;;;;6.75;6.22;;;;;;;;;;1026609;28;20018;-58
2023/03/21 03:14:04;;;;;;;7.45;6.70;;;;;;;;;;1026638;28;20042;-58
2023/03/21 03:14:44;;;;;;;7.60;6.82;;;;;;;;;;1029761;28;20014;-58
2023/03/21 03:15:34;;;;;;;7.20;6.50;;;;;;;;;;1030282;28;20022;-58
2023/03/21 03:16:06;;;;;;;7.30;6.65;;;;;;;;;;1030318;28;20768;-58
2023/03/21 03:16:43;;;;;;;7.45;6.85;;;;;;;;;;1030365;28;20018;-58
2023/03/21 03:17:36;;;;;;;7.68;6.97;;;;;;;;;;1030445;28;20029;-58
2023/03/21 03:18:12;;;;;;;7.18;6.47;;;;;;;;;;1030627;28;20109;-58
2023/03/21 03:18:53;;;;;;;7.55;6.85;;;;;;;;;;1030346;28;20015;-59
2023/03/21 03:19:26;;;;;;;7.45;6.75;;;;;;;;;;1030195;28;20010;-58
2023/03/21 03:20:05;;;;;;;9.07;7.03;;;;;;;;;;1030396;28;20110;-58
2023/03/21 03:20:43;;;;;;;7.13;6.53;;;;;;;;;;1030106;28;20053;-58
2023/03/21 03:21:16;;;;;;;8.10;6.60;;;;;;;;;;1030006;28;20049;-58
2023/03/21 03:21:51;;;;;;;7.70;6.90;;;;;;;;;;1030216;28;20034;-58
2023/03/21 03:22:25;;;;;;;7.13;6.43;;;;;;;;;;1030624;28;20731;-59
2023/03/21 03:22:59;;;;;;;7.63;6.75;;;;;;;;;;1030167;28;20159;-58
2023/03/21 03:23:30;;;;;;;6.93;6.30;;;;;;;;;;1030503;28;20470;-58